Time;durP1;ratioP1;P1;durP2;ratioP2;P2;SDS_P1;SDS_P2;PMS_P1;PMS_P2;Temp;Humidity;BMP_temperature;BMP_pressure;BME280_temperature;BME280_humidity;BME280_pressure;Samples;Min_cycle;Max_cycle;Signal;HPM_P1;HPM_P2
2022/08/04 00:01:03;;;;;;;4.78;2.88;;;24.90;99.90;;;;;;5058164;28;20562;-71
2022/08/04 00:03:41;;;;;;;7.05;3.38;;;24.90;99.90;;;;;;5067999;28;20185;-71
2022/08/04 00:06:33;;;;;;;7.22;3.97;;;24.80;99.90;;;;;;5090914;28;20204;-71
2022/08/04 00:09:06;;;;;;;3.17;2.90;;;24.80;99.90;;;;;;5093506;28;20641;-72
2022/08/04 00:11:32;;;;;;;3.90;2.97;;;24.80;99.90;;;;;;5093784;28;20193;-71
2022/08/04 00:14:03;;;;;;;8.15;4.30;;;24.80;99.90;;;;;;5079843;28;20266;-71
2022/08/04 00:16:32;;;;;;;4.20;3.40;;;24.70;99.90;;;;;;5085440;28;20200;-71
2022/08/04 00:19:07;;;;;;;12.45;4.55;;;24.70;99.90;;;;;;5074886;28;20670;-71
2022/08/04 00:21:37;;;;;;;11.05;4.70;;;24.70;99.90;;;;;;5084554;28;20259;-72
2022/08/04 00:24:04;;;;;;;8.32;3.65;;;24.70;99.90;;;;;;5093446;28;20191;-71
2022/08/04 00:26:31;;;;;;;10.43;4.90;;;24.70;99.90;;;;;;5093482;28;20610;-71
2022/08/04 00:28:57;;;;;;;11.50;5.35;;;24.70;99.90;;;;;;5050530;28;20209;-72
2022/08/04 00:31:25;;;;;;;10.45;6.57;;;24.60;99.90;;;;;;5087201;28;20275;-72
2022/08/04 00:33:51;;;;;;;7.30;4.15;;;24.60;99.90;;;;;;5069647;28;20280;-71
2022/08/04 00:36:17;;;;;;;5.72;3.15;;;24.50;99.90;;;;;;5069528;28;20209;-72
2022/08/04 00:38:44;;;;;;;4.38;3.13;;;24.50;99.90;;;;;;5071594;28;20193;-72
2022/08/04 00:41:18;;;;;;;12.70;3.25;;;24.50;99.90;;;;;;5090739;28;20931;-72
2022/08/04 00:44:16;;;;;;;9.75;3.22;;;24.50;99.90;;;;;;5065026;28;20186;-71
2022/08/04 00:47:13;;;;;;;4.10;2.90;;;24.40;99.90;;;;;;5090490;28;20181;-72
2022/08/04 00:50:18;;;;;;;3.50;2.75;;;24.40;99.90;;;;;;5064555;28;20290;-71
2022/08/04 00:53:02;;;;;;;7.65;4.13;;;24.40;99.90;;;;;;5086627;28;20196;-71
2022/08/04 00:56:01;;;;;;;5.22;3.05;;;24.30;99.90;;;;;;5084733;28;20184;-71
2022/08/04 00:58:43;;;;;;;6.82;4.00;;;24.30;99.90;;;;;;5072018;28;20197;-72
2022/08/04 01:01:24;;;;;;;7.95;3.92;;;24.30;99.90;;;;;;5082503;28;20225;-71
2022/08/04 01:04:14;;;;;;;4.82;3.67;;;24.30;99.90;;;;;;5092095;28;20234;-72
2022/08/04 01:07:00;;;;;;;5.03;3.67;;;24.20;99.90;;;;;;5087378;28;20200;-71
2022/08/04 01:09:36;;;;;;;5.97;4.10;;;24.10;99.90;;;;;;5046910;28;20633;-72
2022/08/04 01:12:08;;;;;;;10.77;3.85;;;24.10;99.90;;;;;;5092532;28;20176;-71
2022/08/04 01:14:33;;;;;;;3.85;3.45;;;24.20;99.90;;;;;;5092803;28;20199;-72
2022/08/04 01:17:23;;;;;;;6.25;4.40;;;24.10;99.90;;;;;;5092365;28;20208;-72
2022/08/04 01:20:15;;;;;;;7.05;3.28;;;24.10;99.90;;;;;;5075168;28;20188;-71
2022/08/04 01:23:25;;;;;;;5.43;3.03;;;24.00;99.90;;;;;;5073274;28;20185;-72
2022/08/04 01:25:55;;;;;;;8.23;4.32;;;23.90;99.90;;;;;;5072137;28;20192;-72
2022/08/04 01:28:47;;;;;;;5.47;3.58;;;23.90;99.90;;;;;;5057454;28;20189;-71
2022/08/04 01:31:25;;;;;;;7.50;3.72;;;23.80;99.90;;;;;;5089219;28;20552;-72
2022/08/04 01:33:54;;;;;;;7.35;3.13;;;23.80;99.90;;;;;;5086890;28;20176;-72
2022/08/04 01:36:23;;;;;;;7.00;3.22;;;23.70;99.90;;;;;;5092428;28;20212;-72
2022/08/04 01:38:52;;;;;;;8.65;4.35;;;23.70;99.90;;;;;;5083111;28;20254;-71
2022/08/04 01:41:19;;;;;;;4.18;3.63;;;23.70;99.90;;;;;;5091700;28;20208;-71
2022/08/04 01:43:45;;;;;;;6.30;3.78;;;23.60;99.90;;;;;;5089666;28;20730;-72
2022/08/04 01:46:14;;;;;;;3.10;2.80;;;23.60;99.90;;;;;;5067939;28;20180;-72
2022/08/04 01:48:50;;;;;;;7.07;3.70;;;23.50;99.90;;;;;;5086371;28;20184;-72
2022/08/04 01:51:16;;;;;;;5.90;4.68;;;23.50;99.90;;;;;;5070012;28;20566;-72
2022/08/04 01:53:44;;;;;;;5.20;4.22;;;23.40;99.90;;;;;;5082877;28;20319;-72
2022/08/04 01:56:11;;;;;;;7.97;4.53;;;23.40;99.90;;;;;;5057642;28;20182;-71
2022/08/04 01:58:38;;;;;;;4.15;3.05;;;23.50;99.90;;;;;;5054633;28;20242;-72
2022/08/04 02:01:10;;;;;;;7.20;4.43;;;23.50;99.90;;;;;;5091093;28;20179;-72
2022/08/04 02:03:42;;;;;;;8.80;3.95;;;23.50;99.90;;;;;;5076355;28;20205;-72
2022/08/04 02:06:22;;;;;;;7.65;4.03;;;23.40;99.90;;;;;;5091226;28;20185;-72
2022/08/04 02:08:57;;;;;;;5.00;3.55;;;23.40;99.90;;;;;;5081891;28;20189;-72
2022/08/04 02:11:23;;;;;;;10.98;4.75;;;23.30;99.90;;;;;;5065059;28;20187;-72
2022/08/04 02:14:11;;;;;;;5.18;3.80;;;23.30;99.90;;;;;;5079116;28;20196;-72
2022/08/04 02:16:47;;;;;;;6.00;4.10;;;23.30;99.90;;;;;;5086392;28;20209;-72
2022/08/04 02:19:34;;;;;;;12.32;4.47;;;23.20;99.90;;;;;;5089959;28;20185;-72
2022/08/04 02:22:08;;;;;;;5.40;3.20;;;23.20;99.90;;;;;;5092273;28;20191;-72
2022/08/04 02:24:44;;;;;;;4.70;3.33;;;23.20;99.90;;;;;;5091127;28;20526;-72
2022/08/04 02:27:13;;;;;;;4.95;3.53;;;23.20;99.90;;;;;;5084334;28;20557;-72
2022/08/04 02:29:57;;;;;;;11.77;5.95;;;23.10;99.90;;;;;;5089070;28;20176;-71
2022/08/04 02:32:28;;;;;;;9.45;4.15;;;23.10;99.90;;;;;;5085664;28;20187;-72
2022/08/04 02:35:08;;;;;;;5.25;3.80;;;23.20;99.90;;;;;;5084846;28;20546;-72
2022/08/04 02:37:34;;;;;;;9.00;4.50;;;23.10;99.90;;;;;;5071128;28;20218;-72
2022/08/04 02:40:04;;;;;;;7.63;3.78;;;23.10;99.90;;;;;;5091835;28;20185;-72
2022/08/04 02:42:32;;;;;;;4.13;3.80;;;23.10;99.90;;;;;;5069875;28;20309;-72
2022/08/04 02:44:59;;;;;;;10.07;4.38;;;23.00;99.90;;;;;;5084383;28;20670;-72
2022/08/04 02:47:27;;;;;;;9.07;5.20;;;23.10;99.90;;;;;;5039955;28;20216;-72
2022/08/04 02:49:55;;;;;;;6.45;3.88;;;23.10;99.90;;;;;;5076053;28;20188;-72
2022/08/04 02:52:22;;;;;;;6.63;4.18;;;23.10;99.90;;;;;;5087205;28;20219;-72
2022/08/04 02:54:52;;;;;;;9.23;4.47;;;23.00;99.90;;;;;;5072918;28;20192;-72
2022/08/04 02:57:20;;;;;;;5.18;4.32;;;23.00;99.90;;;;;;5091935;28;20212;-71
2022/08/04 03:00:13;;;;;;;6.07;4.78;;;23.00;99.90;;;;;;5086493;28;20181;-72
2022/08/04 03:02:38;;;;;;;6.35;3.67;;;22.90;99.90;;;;;;5081152;28;20261;-72
2022/08/04 03:05:15;;;;;;;5.85;4.57;;;22.90;99.90;;;;;;5088781;28;20705;-72
2022/08/04 03:08:07;;;;;;;11.13;4.47;;;22.90;99.90;;;;;;5070002;28;20283;-72
2022/08/04 03:11:27;;;;;;;12.48;6.80;;;22.90;99.90;;;;;;5059502;28;20189;-72
2022/08/04 03:14:21;;;;;;;10.45;3.85;;;22.90;99.90;;;;;;5072018;28;20275;-72
2022/08/04 03:17:25;;;;;;;11.45;4.60;;;22.70;99.90;;;;;;5092989;28;20208;-71
2022/08/04 03:20:12;;;;;;;8.48;3.85;;;22.70;99.90;;;;;;5078145;28;20242;-71
2022/08/04 03:23:10;;;;;;;5.35;4.35;;;22.60;99.90;;;;;;5094703;28;20590;-72
2022/08/04 03:25:54;;;;;;;7.95;4.43;;;22.50;99.90;;;;;;5072243;28;20200;-71
2022/08/04 03:29:02;;;;;;;6.78;4.03;;;22.40;99.90;;;;;;5088929;28;20192;-67
2022/08/04 03:31:56;;;;;;;6.68;4.00;;;22.50;99.90;;;;;;5076660;28;20267;-66
2022/08/04 03:34:40;;;;;;;7.40;4.18;;;22.50;99.90;;;;;;5077803;28;20184;-65
2022/08/04 03:37:51;;;;;;;9.43;5.25;;;22.50;99.90;;;;;;5093686;28;20577;-66
2022/08/04 03:40:28;;;;;;;8.85;4.07;;;22.40;99.90;;;;;;5078175;28;20189;-67
2022/08/04 03:43:22;;;;;;;7.72;4.47;;;22.40;99.90;;;;;;5074099;28;20180;-66
2022/08/04 03:46:25;;;;;;;9.27;4.43;;;22.40;99.90;;;;;;5071754;28;20271;-65
2022/08/04 03:48:56;;;;;;;4.93;4.32;;;22.40;99.90;;;;;;5088464;28;20180;-65
2022/08/04 03:54:57;;;;;;;11.50;5.07;;;22.40;99.90;;;;;;5075143;28;20272;-64
2022/08/04 03:57:31;;;;;;;11.40;5.53;;;22.30;99.90;;;;;;5082394;28;20212;-65
2022/08/04 04:00:20;;;;;;;6.53;5.10;;;22.30;99.90;;;;;;5084027;28;20263;-66
2022/08/04 04:02:51;;;;;;;9.55;6.18;;;22.40;99.90;;;;;;5092718;28;20514;-64
2022/08/04 04:05:44;;;;;;;13.27;6.82;;;22.30;99.90;;;;;;5072347;28;20694;-65
2022/08/04 04:08:28;;;;;;;7.13;4.43;;;22.20;99.90;;;;;;5074080;28;20307;-66
2022/08/04 04:11:13;;;;;;;5.85;4.40;;;22.20;99.90;;;;;;5081885;28;20709;-65
2022/08/04 04:13:53;;;;;;;6.70;2.97;;;22.30;99.90;;;;;;5093515;28;20559;-66
2022/08/04 04:16:49;;;;;;;5.38;4.78;;;22.30;99.90;;;;;;5075751;28;20177;-64
2022/08/04 04:19:21;;;;;;;7.15;4.68;;;22.30;99.90;;;;;;5086523;28;20269;-65
2022/08/04 04:21:56;;;;;;;7.43;5.38;;;22.30;99.90;;;;;;5094890;28;20226;-66
2022/08/04 04:24:32;;;;;;;9.10;5.78;;;22.30;99.90;;;;;;5087961;28;20184;-66
2022/08/04 04:27:09;;;;;;;7.80;3.85;;;22.30;99.90;;;;;;5090692;28;20317;-65
2022/08/04 04:29:43;;;;;;;8.60;3.53;;;22.30;99.90;;;;;;5093861;28;20176;-66
2022/08/04 04:32:23;;;;;;;6.13;4.20;;;22.30;99.90;;;;;;5086556;28;20208;-65
2022/08/04 04:35:07;;;;;;;10.95;4.50;;;22.30;99.90;;;;;;5084317;28;20181;-65
2022/08/04 04:37:50;;;;;;;11.02;3.55;;;22.30;99.90;;;;;;5068017;28;20729;-70
2022/08/04 04:40:27;;;;;;;7.30;5.25;;;22.20;99.90;;;;;;5087286;28;20180;-72
2022/08/04 04:43:08;;;;;;;5.65;4.20;;;22.30;99.90;;;;;;5062578;28;20173;-66
2022/08/04 04:45:37;;;;;;;5.18;2.83;;;22.50;99.90;;;;;;5093188;28;20208;-67
2022/08/04 04:48:31;;;;;;;8.23;3.63;;;22.40;99.90;;;;;;5088566;28;20196;-65
2022/08/04 04:51:07;;;;;;;6.72;2.97;;;22.40;99.90;;;;;;5090171;28;20260;-65
2022/08/04 04:53:50;;;;;;;6.90;3.67;;;22.40;99.90;;;;;;5093584;28;20527;-65
2022/08/04 04:56:37;;;;;;;7.90;5.03;;;22.40;99.90;;;;;;5086870;28;20185;-65
2022/08/04 04:59:09;;;;;;;9.88;3.63;;;22.50;99.90;;;;;;5089834;28;20502;-65
2022/08/04 05:02:09;;;;;;;8.18;3.40;;;22.60;99.90;;;;;;5079686;28;20169;-67
2022/08/04 05:05:16;;;;;;;6.25;3.03;;;22.60;99.90;;;;;;5067233;28;20625;-65
2022/08/04 05:07:59;;;;;;;6.97;2.97;;;22.60;99.90;;;;;;5064791;28;20223;-65
2022/08/04 05:10:46;;;;;;;14.93;2.65;;;22.70;99.90;;;;;;5092367;28;20181;-65
2022/08/04 05:13:30;;;;;;;8.65;3.10;;;22.70;99.90;;;;;;5094158;28;20173;-65
2022/08/04 05:16:13;;;;;;;9.18;3.55;;;22.70;99.90;;;;;;5083737;28;20241;-66
2022/08/04 05:18:41;;;;;;;7.80;2.78;;;22.60;99.90;;;;;;5081847;28;20239;-66
2022/08/04 05:21:19;;;;;;;3.35;2.45;;;22.70;99.90;;;;;;5068123;28;20191;-66
2022/08/04 05:23:48;;;;;;;8.95;3.15;;;22.80;99.90;;;;;;5090705;28;20180;-66
2022/08/04 05:26:20;;;;;;;5.63;3.00;;;22.80;99.90;;;;;;5091936;28;20630;-66
2022/08/04 05:28:53;;;;;;;9.82;5.15;;;22.90;99.90;;;;;;5086074;28;20212;-67
2022/08/04 05:31:24;;;;;;;6.10;2.83;;;23.00;99.90;;;;;;5081491;28;20281;-66
2022/08/04 05:34:04;;;;;;;14.38;3.45;;;23.00;99.90;;;;;;5080366;28;20188;-66
2022/08/04 05:36:39;;;;;;;38.90;4.13;;;23.10;99.90;;;;;;5088094;28;20257;-65
2022/08/04 05:39:09;;;;;;;9.63;4.05;;;23.10;99.90;;;;;;5092667;28;20180;-66
2022/08/04 05:41:36;;;;;;;7.20;3.40;;;23.30;99.90;;;;;;5071041;28;20261;-66
2022/08/04 05:44:02;;;;;;;11.40;3.33;;;23.50;99.90;;;;;;5092670;28;20180;-65
2022/08/04 05:46:29;;;;;;;11.63;3.33;;;23.60;99.90;;;;;;5054726;28;20194;-66
2022/08/04 05:48:55;;;;;;;16.27;3.50;;;23.80;99.90;;;;;;5073621;28;20530;-68
2022/08/04 05:51:21;;;;;;;4.47;3.53;;;23.90;99.90;;;;;;5041077;28;20169;-77
2022/08/04 05:53:49;;;;;;;7.50;2.97;;;24.00;99.90;;;;;;5079133;28;20209;-74
2022/08/04 05:56:16;;;;;;;5.93;2.40;;;24.00;99.90;;;;;;5063599;28;20638;-74
2022/08/04 05:58:43;;;;;;;8.02;3.72;;;24.00;99.90;;;;;;5068386;28;20185;-74
2022/08/04 06:01:10;;;;;;;5.68;3.83;;;23.90;99.90;;;;;;5059062;28;20660;-74
2022/08/04 06:03:37;;;;;;;6.18;2.95;;;24.00;99.90;;;;;;5062691;28;20184;-74
2022/08/04 06:06:04;;;;;;;8.27;2.83;;;24.30;99.90;;;;;;5074457;28;20515;-74
2022/08/04 06:08:30;;;;;;;14.27;2.72;;;24.50;99.90;;;;;;5074291;28;20278;-74
2022/08/04 06:10:59;;;;;;;5.43;2.38;;;24.60;99.90;;;;;;5080353;28;20169;-74
2022/08/04 06:13:39;;;;;;;4.95;2.35;;;24.70;99.90;;;;;;5088545;28;20610;-74
2022/08/04 06:16:06;;;;;;;8.07;3.80;;;24.60;99.90;;;;;;5090433;28;20684;-74
2022/08/04 06:18:34;;;;;;;7.45;2.42;;;24.50;99.90;;;;;;5065934;28;20182;-74
2022/08/04 06:21:02;;;;;;;4.80;2.75;;;24.60;99.90;;;;;;5088915;28;20195;-75
2022/08/04 06:23:30;;;;;;;4.55;3.15;;;24.70;99.90;;;;;;5059261;28;20181;-74
2022/08/04 06:25:59;;;;;;;12.68;3.25;;;24.80;99.90;;;;;;5072144;28;20259;-75
2022/08/04 06:28:26;;;;;;;5.85;3.10;;;24.90;99.90;;;;;;5089511;28;20193;-74
2022/08/04 06:30:54;;;;;;;3.13;2.40;;;24.80;99.90;;;;;;5088676;28;20632;-75
2022/08/04 06:33:32;;;;;;;5.43;3.28;;;24.90;99.90;;;;;;5073430;28;20605;-74
2022/08/04 06:36:00;;;;;;;5.95;3.20;;;25.10;99.90;;;;;;5088154;28;20235;-74
2022/08/04 06:38:28;;;;;;;6.25;2.70;;;25.10;99.90;;;;;;5088973;28;20674;-73
2022/08/04 06:40:58;;;;;;;5.93;2.88;;;25.10;99.90;;;;;;5072931;28;20173;-74
2022/08/04 06:43:25;;;;;;;2.75;2.55;;;25.00;99.90;;;;;;5091081;28;20580;-74
2022/08/04 06:45:52;;;;;;;6.20;2.30;;;25.20;99.90;;;;;;5073138;28;20587;-74
2022/08/04 06:48:18;;;;;;;4.97;2.45;;;25.40;99.90;;;;;;5091514;28;20176;-74
2022/08/04 06:50:48;;;;;;;6.10;4.57;;;25.80;99.90;;;;;;5071797;28;20242;-74
2022/08/04 06:53:14;;;;;;;6.70;2.95;;;25.60;99.90;;;;;;5094110;28;20182;-73
2022/08/04 06:55:42;;;;;;;12.65;3.20;;;25.60;99.90;;;;;;5076076;28;20181;-75
2022/08/04 06:58:09;;;;;;;9.02;2.67;;;25.60;99.90;;;;;;5093042;28;20786;-74
2022/08/04 07:00:36;;;;;;;13.40;3.22;;;25.60;99.90;;;;;;5077471;28;20187;-73
2022/08/04 07:03:04;;;;;;;4.32;2.53;;;25.70;99.90;;;;;;5094140;28;20169;-66
2022/08/04 07:05:30;;;;;;;3.88;2.47;;;25.80;99.90;;;;;;5095591;28;20180;-67
2022/08/04 07:07:56;;;;;;;5.82;2.65;;;26.10;99.90;;;;;;5076957;28;20300;-67
2022/08/04 07:10:23;;;;;;;3.72;2.33;;;26.30;99.90;;;;;;5094697;28;20317;-67
2022/08/04 07:12:50;;;;;;;33.13;7.95;;;26.40;99.90;;;;;;5076828;28;20184;-66
2022/08/04 07:15:17;;;;;;;4.57;2.65;;;26.60;99.90;;;;;;5090060;28;20219;-66
2022/08/04 07:17:45;;;;;;;4.45;2.70;;;26.60;99.90;;;;;;5094912;28;20200;-67
2022/08/04 07:20:11;;;;;;;6.95;2.78;;;26.80;99.90;;;;;;5076739;28;20702;-67
2022/08/04 07:22:37;;;;;;;2.53;1.85;;;26.80;99.90;;;;;;5068308;28;20181;-66
2022/08/04 07:25:09;;;;;;;7.28;3.00;;;26.80;99.90;;;;;;5091977;28;20168;-70
2022/08/04 07:27:35;;;;;;;7.47;2.03;;;27.00;99.90;;;;;;5093154;28;20180;-69
2022/08/04 07:30:04;;;;;;;7.88;2.47;;;27.20;99.90;;;;;;5091253;28;20187;-68
2022/08/04 07:32:31;;;;;;;7.38;3.28;;;27.60;99.90;;;;;;5065656;28;20176;-65
2022/08/04 07:34:58;;;;;;;5.70;2.53;;;27.80;99.90;;;;;;5075199;28;20244;-66
2022/08/04 07:37:24;;;;;;;2.67;2.30;;;28.00;99.90;;;;;;5092145;28;20645;-66
2022/08/04 07:39:49;;;;;;;5.07;3.17;;;28.10;99.90;;;;;;5093262;28;20203;-66
2022/08/04 07:42:18;;;;;;;4.45;2.58;;;28.10;99.90;;;;;;5089104;28;20187;-66
2022/08/04 07:44:45;;;;;;;8.30;3.08;;;28.60;99.90;;;;;;5088980;28;20173;-66
2022/08/04 07:47:11;;;;;;;4.82;2.28;;;28.70;99.90;;;;;;5088758;28;20202;-70
2022/08/04 07:49:36;;;;;;;5.75;2.70;;;28.70;99.90;;;;;;5094017;28;20632;-71
2022/08/04 07:52:03;;;;;;;4.13;2.90;;;28.60;99.90;;;;;;5090387;28;20175;-70
2022/08/04 07:54:29;;;;;;;4.75;2.63;;;28.50;99.90;;;;;;5093424;28;20270;-75
2022/08/04 07:56:55;;;;;;;4.95;2.60;;;28.30;99.90;;;;;;5076432;28;20299;-74
2022/08/04 07:59:21;;;;;;;2.85;2.42;;;28.20;99.90;;;;;;5086207;28;20194;-75
2022/08/04 08:01:47;;;;;;;5.43;2.88;;;27.90;99.90;;;;;;5092104;28;20241;-74
2022/08/04 08:04:13;;;;;;;5.13;3.05;;;27.70;99.90;;;;;;5070895;28;20522;-75
2022/08/04 08:06:40;;;;;;;9.57;3.88;;;27.80;99.90;;;;;;5091729;28;20192;-74
2022/08/04 08:09:08;;;;;;;6.32;4.60;;;27.40;99.90;;;;;;5093822;28;20188;-75
2022/08/04 08:11:34;;;;;;;13.98;5.32;;;27.10;99.90;;;;;;5093423;28;20168;-75
2022/08/04 08:14:01;;;;;;;8.20;4.30;;;26.80;99.90;;;;;;5086546;28;20227;-74
2022/08/04 08:16:27;;;;;;;7.20;4.30;;;26.50;99.90;;;;;;5073168;28;20513;-74
2022/08/04 08:18:54;;;;;;;7.13;4.60;;;26.20;99.90;;;;;;5055632;28;20176;-74
2022/08/04 08:21:21;;;;;;;5.22;3.58;;;26.10;99.90;;;;;;5086216;28;20283;-74
2022/08/04 08:23:47;;;;;;;7.93;4.70;;;26.20;99.90;;;;;;5093994;28;20176;-74
2022/08/04 08:26:12;;;;;;;8.77;5.03;;;26.20;99.90;;;;;;5075217;28;20560;-74
2022/08/04 08:28:38;;;;;;;11.07;6.15;;;26.40;99.90;;;;;;5089966;28;20188;-66
2022/08/04 08:31:05;;;;;;;10.77;5.78;;;26.20;99.90;;;;;;5085866;28;20208;-67
2022/08/04 08:33:31;;;;;;;10.20;5.75;;;26.10;99.90;;;;;;5088793;28;20727;-68
2022/08/04 08:36:23;;;;;;;11.18;5.97;;;25.80;99.90;;;;;;5072441;28;20184;-67
2022/08/04 08:39:12;;;;;;;14.07;6.40;;;25.70;99.90;;;;;;5079559;28;20193;-66
2022/08/04 08:42:05;;;;;;;22.35;8.30;;;25.40;99.90;;;;;;5093461;28;20199;-67
2022/08/04 08:44:50;;;;;;;27.77;9.90;;;25.30;99.90;;;;;;5080839;28;20192;-65
2022/08/04 08:47:39;;;;;;;31.33;11.65;;;25.10;99.90;;;;;;5091021;28;20223;-66
2022/08/04 08:50:16;;;;;;;29.92;10.88;;;25.00;99.90;;;;;;5060309;28;20215;-65
2022/08/04 08:53:10;;;;;;;35.00;13.30;;;24.80;99.90;;;;;;5085367;28;20180;-64
2022/08/04 08:55:56;;;;;;;26.90;11.80;;;24.70;99.90;;;;;;5092825;28;20179;-64
2022/08/04 08:58:34;;;;;;;32.17;13.40;;;24.70;99.90;;;;;;5068612;28;20295;-66
2022/08/04 09:01:30;;;;;;;24.77;13.20;;;24.50;99.90;;;;;;5084210;28;20186;-66
2022/08/04 09:04:34;;;;;;;29.52;14.02;;;24.30;99.90;;;;;;5082142;28;20192;-67
2022/08/04 09:07:21;;;;;;;37.88;14.60;;;24.50;99.90;;;;;;5087235;28;20192;-66
2022/08/04 09:10:20;;;;;;;41.28;14.90;;;24.50;99.90;;;;;;5071350;28;20211;-67
2022/08/04 09:13:02;;;;;;;32.10;14.35;;;24.50;99.90;;;;;;5065529;28;20264;-67
2022/08/04 09:16:15;;;;;;;37.03;14.18;;;24.30;99.90;;;;;;5089309;28;20175;-67
2022/08/04 09:18:52;;;;;;;34.28;15.13;;;24.00;99.90;;;;;;4993971;28;20207;-68
2022/08/04 09:21:27;;;;;;;32.60;14.02;;;24.10;99.90;;;;;;5086930;28;20184;-67
2022/08/04 09:24:05;;;;;;;32.65;15.07;;;24.10;99.90;;;;;;5093176;28;20176;-70
2022/08/04 09:26:48;;;;;;;49.33;16.08;;;24.10;99.90;;;;;;5086894;28;20176;-66
2022/08/04 09:29:25;;;;;;;32.00;15.07;;;24.00;99.90;;;;;;5089134;28;20255;-67
2022/08/04 09:32:06;;;;;;;40.67;16.33;;;24.10;99.90;;;;;;5085848;28;20172;-70
2022/08/04 09:34:54;;;;;;;43.97;14.13;;;24.10;99.90;;;;;;5093116;28;20191;-66
2022/08/04 09:37:22;;;;;;;43.30;16.38;;;24.20;99.90;;;;;;5090671;28;20212;-67
2022/08/04 09:40:22;;;;;;;32.50;14.10;;;24.30;99.90;;;;;;5092493;28;20215;-68
2022/08/04 09:43:25;;;;;;;37.55;14.23;;;24.50;99.90;;;;;;5080640;28;20173;-70
2022/08/04 09:46:19;;;;;;;38.05;15.85;;;24.50;99.90;;;;;;5084034;28;20188;-69
2022/08/04 09:48:58;;;;;;;29.67;13.82;;;24.50;99.90;;;;;;5086565;28;20200;-68
2022/08/04 09:51:57;;;;;;;42.78;19.45;;;24.30;99.90;;;;;;5091511;28;20513;-71
2022/08/04 09:54:32;;;;;;;34.38;16.80;;;24.30;99.90;;;;;;5081259;28;20179;-66
2022/08/04 09:57:37;;;;;;;41.92;16.88;;;24.30;99.90;;;;;;5090396;28;20238;-68
2022/08/04 10:00:12;;;;;;;29.85;14.20;;;24.40;99.90;;;;;;5087923;28;20641;-67
2022/08/04 10:02:48;;;;;;;42.20;18.38;;;24.30;99.90;;;;;;5087001;28;20527;-66
2022/08/04 10:05:19;;;;;;;36.25;18.45;;;24.40;99.90;;;;;;5078009;28;20192;-67
2022/08/04 10:07:52;;;;;;;36.92;18.85;;;24.70;99.90;;;;;;5074203;28;20196;-67
2022/08/04 10:10:25;;;;;;;40.05;17.00;;;24.80;99.90;;;;;;5091572;28;20234;-66
2022/08/04 10:13:19;;;;;;;37.35;16.85;;;25.10;99.90;;;;;;5089169;28;20176;-64
2022/08/04 10:15:50;;;;;;;39.42;15.93;;;25.40;99.90;;;;;;5081846;28;20275;-65
2022/08/04 10:18:38;;;;;;;36.80;16.17;;;25.70;99.90;;;;;;5066712;28;20268;-66
2022/08/04 10:21:11;;;;;;;34.42;15.55;;;25.70;99.90;;;;;;5091720;28;21616;-65
2022/08/04 10:24:04;;;;;;;29.48;15.60;;;25.80;99.90;;;;;;5086805;28;20237;-68
2022/08/04 10:26:29;;;;;;;30.48;13.57;;;26.10;99.90;;;;;;5083681;28;20176;-72
2022/08/04 10:29:11;;;;;;;29.10;12.60;;;26.40;99.90;;;;;;5092110;28;20580;-67
2022/08/04 10:32:13;;;;;;;23.77;13.05;;;26.50;99.90;;;;;;5094872;28;20179;-67
2022/08/04 10:34:46;;;;;;;29.02;13.50;;;26.50;99.90;;;;;;5092103;28;20183;-67
2022/08/04 10:37:23;;;;;;;23.40;12.55;;;26.60;99.90;;;;;;5095450;28;20204;-67
2022/08/04 10:42:58;;;;;;;21.17;11.40;;;26.60;99.90;;;;;;5085725;28;20175;-67
2022/08/04 10:45:31;;;;;;;20.42;12.45;;;26.70;99.90;;;;;;5090103;28;20176;-69
2022/08/04 10:48:06;;;;;;;19.08;10.07;;;27.20;99.90;;;;;;5086089;28;20183;-66
2022/08/04 10:50:36;;;;;;;17.27;10.30;;;27.60;99.90;;;;;;5091016;28;20675;-69
2022/08/04 10:53:12;;;;;;;14.15;9.18;;;27.90;99.90;;;;;;5090059;28;20176;-68
2022/08/04 10:55:47;;;;;;;20.20;9.93;;;28.30;99.90;;;;;;5083826;28;20197;-69
2022/08/04 10:58:20;;;;;;;16.92;9.98;;;28.50;99.90;;;;;;5072884;28;20191;-72
2022/08/04 11:00:47;;;;;;;15.55;7.32;;;28.50;99.90;;;;;;5095275;28;20172;-67
2022/08/04 11:03:33;;;;;;;18.92;9.18;;;28.60;99.90;;;;;;5074550;28;20266;-67
2022/08/04 11:06:02;;;;;;;19.75;8.63;;;28.80;99.90;;;;;;5091671;28;20262;-67
2022/08/04 11:08:44;;;;;;;8.27;7.10;;;29.00;99.90;;;;;;5077378;28;20212;-68
2022/08/04 11:11:31;;;;;;;13.85;6.22;;;28.80;99.90;;;;;;5074727;28;20168;-67
2022/08/04 11:14:01;;;;;;;12.48;8.27;;;28.90;99.90;;;;;;5076873;28;20172;-71
2022/08/04 11:16:34;;;;;;;15.85;8.43;;;29.00;99.90;;;;;;5095329;28;20175;-67
2022/08/04 11:19:28;;;;;;;16.10;7.55;;;28.90;99.90;;;;;;5073812;28;20172;-66
2022/08/04 11:22:08;;;;;;;15.85;7.20;;;28.80;99.90;;;;;;5092729;28;20174;-69
2022/08/04 11:24:45;;;;;;;10.20;7.30;;;28.70;99.90;;;;;;5091973;28;20644;-69
2022/08/04 11:27:29;;;;;;;10.30;6.38;;;28.70;99.90;;;;;;5082226;28;20226;-69
2022/08/04 11:30:04;;;;;;;9.90;6.22;;;28.50;99.90;;;;;;5094823;28;20169;-71
2022/08/04 11:33:05;;;;;;;11.18;5.82;;;28.80;99.90;;;;;;5091441;28;20202;-68
2022/08/04 11:36:02;;;;;;;5.95;5.20;;;28.80;99.90;;;;;;5079365;28;20338;-69
2022/08/04 11:38:50;;;;;;;10.90;6.20;;;28.70;99.90;;;;;;5075631;28;20200;-68
2022/08/04 11:41:23;;;;;;;12.88;7.43;;;28.60;99.90;;;;;;5075084;28;20215;-69
2022/08/04 11:43:57;;;;;;;12.25;6.13;;;28.50;99.90;;;;;;5076214;28;20168;-69
2022/08/04 11:46:38;;;;;;;10.23;5.82;;;28.50;99.90;;;;;;5060918;28;21988;-71
2022/08/04 11:49:10;;;;;;;14.23;6.07;;;28.60;99.90;;;;;;5071448;28;20766;-73
2022/08/04 11:51:37;;;;;;;17.08;6.78;;;28.70;99.90;;;;;;5089803;28;20188;-74
2022/08/04 11:54:03;;;;;;;7.60;5.28;;;29.00;99.90;;;;;;5094774;28;20255;-72
2022/08/04 11:56:30;;;;;;;6.78;5.47;;;29.00;99.90;;;;;;5089020;28;20172;-72
2022/08/04 11:58:57;;;;;;;8.57;6.28;;;29.20;99.90;;;;;;5094631;28;20180;-74
2022/08/04 12:02:00;;;;;;;9.48;7.22;;;29.20;99.90;;;;;;5091652;28;20172;-71
2022/08/04 12:04:54;;;;;;;10.35;6.22;;;28.70;99.90;;;;;;5082921;28;20184;-72
2022/08/04 12:07:37;;;;;;;8.73;5.05;;;28.70;99.90;;;;;;5073658;28;20657;-72
2022/08/04 12:10:21;;;;;;;13.07;5.00;;;28.40;99.90;;;;;;5085210;28;20176;-71
2022/08/04 12:12:52;;;;;;;8.57;4.55;;;28.60;99.90;;;;;;5076305;28;20545;-70
2022/08/04 12:15:43;;;;;;;8.02;4.43;;;28.80;99.90;;;;;;5094009;28;20180;-70
2022/08/04 12:18:21;;;;;;;6.70;5.03;;;28.80;99.90;;;;;;5074970;28;20206;-71
2022/08/04 12:20:50;;;;;;;4.38;3.60;;;29.00;99.90;;;;;;5068715;28;20191;-70
2022/08/04 12:23:28;;;;;;;8.48;5.07;;;28.90;99.90;;;;;;5092618;28;20168;-71
2022/08/04 12:26:01;;;;;;;6.28;4.55;;;28.80;99.90;;;;;;5091241;28;20195;-66
2022/08/04 12:28:38;;;;;;;8.63;5.43;;;28.60;99.90;;;;;;5075944;28;20266;-67
2022/08/04 12:31:22;;;;;;;10.38;4.28;;;28.40;99.90;;;;;;5088798;28;20686;-69
2022/08/04 12:34:11;;;;;;;7.25;3.80;;;28.40;99.90;;;;;;5085333;28;20176;-72
2022/08/04 12:36:57;;;;;;;5.93;4.30;;;28.20;99.90;;;;;;5075877;28;20187;-71
2022/08/04 12:39:25;;;;;;;5.80;4.07;;;27.90;99.90;;;;;;5094065;28;20183;-72
2022/08/04 12:42:14;;;;;;;9.48;4.28;;;28.00;99.90;;;;;;5094068;28;20241;-71
2022/08/04 12:44:42;;;;;;;8.27;4.13;;;28.10;99.90;;;;;;5074659;28;20175;-72
2022/08/04 12:47:10;;;;;;;5.55;4.05;;;28.20;99.90;;;;;;5070026;28;20630;-70
2022/08/04 12:49:40;;;;;;;6.85;5.70;;;28.20;99.90;;;;;;5086252;28;20208;-71
2022/08/04 12:52:10;;;;;;;8.18;3.67;;;28.40;99.90;;;;;;5084795;28;20226;-69
2022/08/04 12:54:38;;;;;;;9.00;5.55;;;28.60;99.90;;;;;;5059178;28;20183;-69
2022/08/04 12:57:06;;;;;;;10.60;4.22;;;28.50;99.90;;;;;;5084742;28;20203;-69
2022/08/04 12:59:46;;;;;;;7.93;4.25;;;28.40;99.90;;;;;;5075371;28;20188;-69
2022/08/04 13:02:35;;;;;;;6.90;4.38;;;28.30;99.90;;;;;;5072124;28;20190;-69
2022/08/04 13:05:04;;;;;;;5.53;4.25;;;28.30;99.90;;;;;;5091178;28;20193;-70
2022/08/04 13:07:37;;;;;;;5.15;4.57;;;28.30;99.90;;;;;;5093498;28;20199;-69
2022/08/04 13:10:15;;;;;;;6.22;3.95;;;28.50;99.90;;;;;;5073419;28;20652;-69
2022/08/04 13:12:50;;;;;;;7.10;3.60;;;28.70;99.90;;;;;;5066600;28;20249;-70
2022/08/04 13:15:20;;;;;;;4.57;3.65;;;29.00;99.90;;;;;;5091408;28;20175;-69
2022/08/04 13:17:56;;;;;;;3.80;3.50;;;29.20;99.90;;;;;;5092810;28;20226;-69
2022/08/04 13:20:41;;;;;;;3.20;2.92;;;29.30;99.90;;;;;;5081682;28;20551;-70
2022/08/04 13:23:10;;;;;;;8.98;3.92;;;29.10;99.90;;;;;;5089608;28;20564;-71
2022/08/04 13:25:46;;;;;;;4.10;2.90;;;29.10;99.90;;;;;;5093090;28;20662;-69
2022/08/04 13:28:21;;;;;;;6.55;2.97;;;29.20;99.90;;;;;;5074564;28;20579;-69
2022/08/04 13:30:52;;;;;;;7.32;2.88;;;29.20;99.90;;;;;;5089619;28;20203;-70
2022/08/04 13:33:19;;;;;;;8.85;3.60;;;29.20;99.90;;;;;;5089116;28;20206;-70
2022/08/04 13:35:46;;;;;;;4.07;3.03;;;29.30;99.90;;;;;;5083304;28;20223;-70
2022/08/04 13:38:14;;;;;;;2.92;2.72;;;29.50;99.90;;;;;;5057973;28;20215;-70